Photometre #72[NE_1.6] AgiaMarina_Xyliatou AOT

File : 20190927_72.hum

27/09/2019,04:23:19,TEMP=19.9,BA=5.72,STAT.A=4.0,ExtBa=13.70
27/09/2019,04:26:27,TEMP=20.3,BA=5.72,STAT.A=4.0,ExtBa=13.50
27/09/2019,04:30:07,TEMP=20.5,BA=5.72,STAT.A=4.0,ExtBa=13.40
27/09/2019,04:34:29,TEMP=20.8,BA=5.72,STAT.A=4.0,ExtBa=13.50
27/09/2019,04:39:44,TEMP=21.1,BA=5.72,STAT.A=4.0,ExtBa=13.50
27/09/2019,04:46:12,TEMP=21.6,BA=5.72,STAT.A=4.0,ExtBa=13.50
27/09/2019,04:54:22,TEMP=22.1,BA=5.76,STAT.B=5.0,ExtBa=13.40
27/09/2019,05:04:50,TEMP=23.6,BA=5.72,STAT.A=4.0,ExtBa=13.00
27/09/2019,05:06:45,TEMP=23.8,BA=5.72,STAT.A=5.0,ExtBa=13.00
27/09/2019,05:08:40,TEMP=24.0,BA=5.72,STAT.A=5.0,ExtBa=13.10
27/09/2019,05:13:08,TEMP=23.9,BA=5.72,STAT.A=5.0,ExtBa=13.30
27/09/2019,05:19:31,TEMP=24.3,BA=5.72,STAT.C=5.0,ExtBa=13.30
27/09/2019,05:35:28,TEMP=26.3,BA=5.72,STAT.A=5.0,ExtBa=13.00
27/09/2019,05:37:23,TEMP=26.5,BA=5.72,STAT.A=5.0,ExtBa=13.00
27/09/2019,05:46:02,TEMP=26.4,BA=5.72,STAT.A=5.0,ExtBa=13.40
27/09/2019,05:58:43,TEMP=27.0,BA=5.72,STAT.A=5.0,ExtBa=13.60
27/09/2019,06:14:38,TEMP=27.3,BA=5.72,STAT.B=5.0,ExtBa=13.60
27/09/2019,06:24:29,TEMP=28.0,BA=5.64,STAT.D=5.0,ExtBa=13.20
27/09/2019,06:39:29,TEMP=28.0,BA=5.72,STAT.F,ExtBa=13.30
27/09/2019,06:54:59,TEMP=29.6,BA=5.60,STAT.D=5.0,ExtBa=12.90
27/09/2019,07:09:28,TEMP=29.8,BA=5.72,STAT.D=5.0,ExtBa=13.30
27/09/2019,07:24:28,TEMP=29.9,BA=5.72,STAT.D=5.0,ExtBa=13.40
27/09/2019,07:39:29,TEMP=30.1,BA=5.72,STAT.F,ExtBa=13.30
27/09/2019,07:58:43,TEMP=30.5,BA=5.56,STAT.D=5.0,ExtBa=13.10
27/09/2019,08:09:28,TEMP=30.4,BA=5.56,STAT.D=5.0,ExtBa=13.30
27/09/2019,08:24:28,TEMP=30.9,BA=5.68,STAT.D=5.0,ExtBa=13.30
27/09/2019,08:39:29,TEMP=31.3,BA=5.68,STAT.F,ExtBa=13.30
27/09/2019,08:54:28,TEMP=31.1,BA=5.60,STAT.D=5.0,ExtBa=13.30
27/09/2019,09:09:28,TEMP=31.6,BA=5.60,STAT.D=5.0,ExtBa=13.40
27/09/2019,09:24:28,TEMP=32.0,BA=5.60,STAT.D=5.0,ExtBa=13.30
27/09/2019,09:39:30,TEMP=33.1,BA=5.60,STAT.F,ExtBa=13.40
27/09/2019,09:54:28,TEMP=32.7,BA=5.56,STAT.D=5.0,ExtBa=13.20
27/09/2019,10:09:28,TEMP=31.4,BA=5.56,STAT.D=5.0,ExtBa=13.40
27/09/2019,10:24:28,TEMP=30.8,BA=5.56,STAT.D=5.0,ExtBa=13.30
27/09/2019,10:39:30,TEMP=31.0,BA=5.56,STAT.F,ExtBa=13.30
27/09/2019,10:54:28,TEMP=30.9,BA=5.56,STAT.D=5.0,ExtBa=13.30
27/09/2019,11:09:28,TEMP=30.7,BA=5.56,STAT.D=5.0,ExtBa=13.40
27/09/2019,11:24:28,TEMP=30.2,BA=5.56,STAT.D=5.0,ExtBa=13.40
27/09/2019,11:39:29,TEMP=29.6,BA=5.56,STAT.F,ExtBa=13.40
27/09/2019,11:55:25,TEMP=30.4,BA=5.48,STAT.D=5.0,ExtBa=13.00
27/09/2019,12:09:27,TEMP=29.8,BA=5.60,STAT.D=5.0,ExtBa=13.30
27/09/2019,12:24:27,TEMP=29.7,BA=5.64,STAT.D=5.0,ExtBa=13.40
27/09/2019,12:39:29,TEMP=29.6,BA=5.64,STAT.F,ExtBa=13.40
27/09/2019,12:56:13,TEMP=28.7,BA=5.48,STAT.D=5.0,ExtBa=13.00
27/09/2019,13:04:20,TEMP=27.3,BA=5.60,STAT.B=5.0,ExtBa=13.20
27/09/2019,13:20:14,TEMP=26.8,BA=5.60,STAT.A=5.0,ExtBa=13.20
27/09/2019,13:32:54,TEMP=26.2,BA=5.68,STAT.A=5.0,ExtBa=13.40
27/09/2019,13:43:17,TEMP=25.8,BA=5.72,STAT.A=5.0,ExtBa=13.40
27/09/2019,13:52:00,TEMP=25.6,BA=5.72,STAT.A=5.0,ExtBa=13.40
27/09/2019,13:59:25,TEMP=25.5,BA=5.72,STAT.C=5.0,ExtBa=13.40
27/09/2019,14:05:48,TEMP=25.5,BA=5.60,STAT.A=5.0,ExtBa=13.40
27/09/2019,14:11:23,TEMP=25.4,BA=5.72,STAT.A=5.0,ExtBa=13.40
27/09/2019,14:16:18,TEMP=25.2,BA=5.72,STAT.A=5.0,ExtBa=13.40
27/09/2019,14:20:40,TEMP=25.0,BA=5.72,STAT.A=5.0,ExtBa=13.40
27/09/2019,14:24:34,TEMP=24.8,BA=5.72,STAT.B=5.0,ExtBa=13.30
27/09/2019,14:35:20,TEMP=25.0,BA=5.56,STAT.A=5.0,ExtBa=13.00
27/09/2019,14:39:12,TEMP=24.6,BA=5.56,STAT.A=5.0,ExtBa=13.10
27/09/2019,14:44:27,TEMP=24.3,BA=5.60,STAT.A=5.0,ExtBa=13.10
27/09/2019,14:50:34,TEMP=23.9,BA=5.56,STAT.A=5.0,ExtBa=13.00
27/09/2019,14:52:29,TEMP=24.2,BA=5.56,STAT.A=5.0,ExtBa=12.90
27/09/2019,14:55:37,TEMP=23.9,BA=5.56,STAT.A=5.0,ExtBa=12.90